Time;durP1;ratioP1;P1;durP2;ratioP2;P2;SDS_P1;SDS_P2;PMS_P1;PMS_P2;Temp;Humidity;BMP_temperature;BMP_pressure;BME280_temperature;BME280_humidity;BME280_pressure;Samples;Min_cycle;Max_cycle;Signal;HPM_P1;HPM_P2
2021/06/14 00:01:56;;;;;;;9.90;3.75;;;14.60;99.00;;;;;;4990893;28;20122;-61
2021/06/14 00:04:22;;;;;;;6.72;3.50;;;14.50;99.40;;;;;;4981508;28;20502;-61
2021/06/14 00:06:48;;;;;;;6.90;3.70;;;14.40;99.90;;;;;;4984517;28;20102;-60
2021/06/14 00:09:18;;;;;;;10.38;4.30;;;14.30;99.90;;;;;;5001589;28;20100;-60
2021/06/14 00:11:44;;;;;;;10.77;3.78;;;14.20;99.90;;;;;;4988562;28;20035;-61
2021/06/14 00:14:10;;;;;;;7.20;3.50;;;14.20;99.90;;;;;;4988065;28;20682;-61
2021/06/14 00:16:36;;;;;;;6.03;3.03;;;14.10;99.90;;;;;;4990184;28;20045;-61
2021/06/14 00:19:04;;;;;;;7.78;3.63;;;14.10;99.90;;;;;;4979153;28;20026;-61
2021/06/14 00:21:29;;;;;;;8.50;3.70;;;14.00;99.90;;;;;;4982059;28;20085;-61
2021/06/14 00:23:55;;;;;;;7.88;3.65;;;14.00;99.90;;;;;;4983931;28;20035;-60
2021/06/14 00:26:21;;;;;;;10.75;3.60;;;14.00;99.90;;;;;;4979904;28;20031;-62
2021/06/14 00:28:46;;;;;;;10.65;3.85;;;14.00;99.90;;;;;;4978614;28;20041;-62
2021/06/14 00:31:12;;;;;;;6.80;3.33;;;13.90;99.90;;;;;;4982357;28;20036;-61
2021/06/14 00:33:39;;;;;;;6.43;3.55;;;13.90;99.90;;;;;;4986147;28;20029;-61
2021/06/14 00:36:05;;;;;;;9.73;3.80;;;13.90;99.90;;;;;;4981992;28;20038;-61
2021/06/14 00:38:31;;;;;;;9.65;4.65;;;13.80;99.90;;;;;;4981046;28;20389;-61
2021/06/14 00:40:56;;;;;;;9.43;3.95;;;13.70;99.90;;;;;;4980661;28;20026;-62
2021/06/14 00:43:22;;;;;;;8.30;3.50;;;13.70;99.90;;;;;;4977940;28;20053;-62
2021/06/14 00:45:51;;;;;;;6.20;3.90;;;13.60;99.90;;;;;;4983562;28;20033;-62
2021/06/14 00:48:17;;;;;;;9.73;3.72;;;13.50;99.90;;;;;;4982036;28;20118;-61
2021/06/14 00:50:45;;;;;;;9.10;4.03;;;13.50;99.90;;;;;;4978992;28;20433;-61
2021/06/14 00:53:33;;;;;;;8.73;3.80;;;13.40;99.90;;;;;;4978738;28;20416;-61
2021/06/14 00:56:00;;;;;;;8.98;4.57;;;13.40;99.90;;;;;;4980252;28;20048;-62
2021/06/14 00:58:26;;;;;;;8.50;3.85;;;13.30;99.90;;;;;;4979973;28;20700;-60
2021/06/14 01:00:53;;;;;;;10.27;3.80;;;13.30;99.90;;;;;;4977333;28;20038;-62
2021/06/14 01:03:18;;;;;;;10.30;3.67;;;13.30;99.90;;;;;;4980114;28;20077;-61
2021/06/14 01:05:51;;;;;;;10.70;3.83;;;13.30;99.90;;;;;;4981360;28;20039;-60
2021/06/14 01:08:18;;;;;;;9.30;3.63;;;13.10;99.90;;;;;;4989760;28;20547;-62
2021/06/14 01:10:44;;;;;;;10.73;3.90;;;13.10;99.90;;;;;;4982277;28;20057;-62
2021/06/14 01:13:40;;;;;;;8.13;3.28;;;13.10;99.90;;;;;;4977456;28;20733;-61
2021/06/14 01:16:17;;;;;;;6.10;3.47;;;13.10;99.90;;;;;;4980421;28;20038;-61
2021/06/14 01:19:01;;;;;;;10.85;4.20;;;13.10;99.90;;;;;;4986692;28;20034;-61
2021/06/14 01:21:27;;;;;;;9.80;4.32;;;13.00;99.90;;;;;;4981438;28;20521;-60
2021/06/14 01:24:13;;;;;;;13.50;4.05;;;13.10;99.90;;;;;;4979018;28;20046;-60
2021/06/14 01:27:11;;;;;;;6.57;3.50;;;13.00;99.90;;;;;;4978511;28;20030;-61
2021/06/14 01:29:38;;;;;;;8.32;3.70;;;13.00;99.90;;;;;;4978307;28;20027;-60
2021/06/14 01:32:07;;;;;;;5.78;3.33;;;13.00;99.90;;;;;;4981703;28;20018;-60
2021/06/14 01:34:37;;;;;;;7.60;3.42;;;13.00;99.90;;;;;;4980988;28;20114;-61
2021/06/14 01:37:05;;;;;;;6.93;3.63;;;13.00;99.90;;;;;;4980359;28;20543;-61
2021/06/14 01:39:36;;;;;;;11.45;3.28;;;13.00;99.90;;;;;;4978661;28;20057;-62
2021/06/14 01:42:03;;;;;;;8.38;3.50;;;13.00;99.90;;;;;;4978700;28;20034;-61
2021/06/14 01:44:32;;;;;;;5.97;3.25;;;12.90;99.90;;;;;;4975949;28;20032;-62
2021/06/14 01:47:00;;;;;;;6.82;3.80;;;12.90;99.90;;;;;;4980862;28;20106;-61
2021/06/14 01:49:27;;;;;;;8.10;3.78;;;12.80;99.90;;;;;;4979194;28;20023;-62
2021/06/14 01:51:52;;;;;;;7.93;3.85;;;12.80;99.90;;;;;;4976833;28;20067;-62
2021/06/14 01:54:18;;;;;;;7.97;3.53;;;12.80;99.90;;;;;;4984482;28;20030;-62
2021/06/14 01:56:50;;;;;;;8.35;3.72;;;12.80;99.90;;;;;;4979179;28;20035;-62
2021/06/14 01:59:23;;;;;;;9.90;4.15;;;12.70;99.90;;;;;;4977141;28;20034;-62
2021/06/14 02:01:49;;;;;;;8.40;3.75;;;12.70;99.90;;;;;;4978724;28;20042;-60
2021/06/14 02:04:16;;;;;;;7.50;4.25;;;12.70;99.90;;;;;;4974190;28;20097;-62
2021/06/14 02:06:43;;;;;;;10.25;3.70;;;12.70;99.90;;;;;;4975575;28;20045;-61
2021/06/14 02:09:15;;;;;;;8.27;3.90;;;12.70;99.90;;;;;;4978976;28;20102;-61
2021/06/14 02:11:47;;;;;;;7.40;3.88;;;12.70;99.90;;;;;;4977108;28;20030;-61
2021/06/14 02:14:16;;;;;;;11.85;3.92;;;12.60;99.90;;;;;;4978958;28;20089;-61
2021/06/14 02:16:43;;;;;;;13.50;5.47;;;12.60;99.90;;;;;;4981949;28;20059;-60
2021/06/14 02:19:09;;;;;;;16.02;3.95;;;12.60;99.90;;;;;;4979120;28;20029;-62
2021/06/14 02:21:35;;;;;;;9.65;3.95;;;12.50;99.90;;;;;;4983810;28;20026;-61
2021/06/14 02:24:00;;;;;;;8.90;3.58;;;12.50;99.90;;;;;;4981392;28;20030;-61
2021/06/14 02:26:26;;;;;;;9.68;3.92;;;12.50;99.90;;;;;;4975759;28;21741;-61
2021/06/14 02:28:52;;;;;;;8.80;3.55;;;12.50;99.90;;;;;;4978188;28;20381;-61
2021/06/14 02:31:18;;;;;;;7.72;4.43;;;12.50;99.90;;;;;;4978902;28;20056;-61
2021/06/14 02:33:43;;;;;;;12.00;4.32;;;12.40;99.90;;;;;;4978163;28;20026;-60
2021/06/14 02:36:09;;;;;;;12.77;4.88;;;12.40;99.90;;;;;;4974791;28;20026;-61
2021/06/14 02:38:36;;;;;;;7.63;3.42;;;12.40;99.90;;;;;;4976532;28;20437;-60
2021/06/14 02:41:02;;;;;;;8.55;3.80;;;12.40;99.90;;;;;;4977709;28;20125;-62
2021/06/14 02:43:28;;;;;;;10.90;3.72;;;12.40;99.90;;;;;;4975916;28;20070;-60
2021/06/14 02:45:54;;;;;;;8.48;3.97;;;12.50;99.90;;;;;;4977412;28;20030;-61
2021/06/14 02:48:21;;;;;;;12.45;4.10;;;12.40;99.90;;;;;;4977771;28;20027;-60
2021/06/14 02:50:48;;;;;;;10.13;4.78;;;12.40;99.90;;;;;;4975082;28;20026;-59
2021/06/14 02:53:15;;;;;;;10.63;4.15;;;12.50;99.90;;;;;;4978907;28;20511;-61
2021/06/14 02:55:50;;;;;;;6.97;3.28;;;12.40;99.90;;;;;;4975927;28;20887;-61
2021/06/14 02:58:25;;;;;;;9.82;3.45;;;12.30;99.90;;;;;;4978389;28;20038;-61
2021/06/14 03:00:51;;;;;;;7.25;3.72;;;12.40;99.90;;;;;;4981132;28;20116;-59
2021/06/14 03:03:17;;;;;;;10.32;4.63;;;12.40;99.90;;;;;;4977605;28;20181;-61
2021/06/14 03:05:43;;;;;;;10.02;4.03;;;12.30;99.90;;;;;;4978767;28;20022;-62
2021/06/14 03:08:09;;;;;;;7.82;3.58;;;12.30;99.90;;;;;;4981755;28;20018;-61
2021/06/14 03:10:35;;;;;;;9.88;3.85;;;12.30;99.90;;;;;;4979313;28;20970;-60
2021/06/14 03:13:03;;;;;;;12.82;4.72;;;12.30;99.90;;;;;;4976044;28;20109;-61
2021/06/14 03:15:31;;;;;;;8.98;4.20;;;12.20;99.90;;;;;;4981733;28;20089;-60
2021/06/14 03:17:59;;;;;;;8.45;4.25;;;12.20;99.90;;;;;;4977970;28;20096;-61
2021/06/14 03:20:25;;;;;;;11.40;3.88;;;12.30;99.90;;;;;;4979056;28;20289;-60
2021/06/14 03:22:52;;;;;;;6.97;3.95;;;12.20;99.90;;;;;;4973433;28;20416;-60
2021/06/14 03:25:18;;;;;;;13.60;4.50;;;12.30;99.90;;;;;;4973121;28;20054;-61
2021/06/14 03:27:44;;;;;;;11.57;5.03;;;12.30;99.90;;;;;;4976286;28;20026;-60
2021/06/14 03:30:12;;;;;;;8.10;3.67;;;12.30;99.90;;;;;;4979511;28;20034;-61
2021/06/14 03:32:41;;;;;;;9.43;3.83;;;12.30;99.90;;;;;;4974017;28;20034;-61
2021/06/14 03:35:09;;;;;;;10.32;4.40;;;12.30;99.90;;;;;;4973048;28;20045;-58
2021/06/14 03:37:35;;;;;;;8.15;3.60;;;12.30;99.90;;;;;;4980372;28;20111;-60
2021/06/14 03:40:01;;;;;;;11.43;4.05;;;12.40;99.90;;;;;;4975503;28;20120;-59
2021/06/14 03:42:30;;;;;;;10.70;4.13;;;12.50;99.90;;;;;;4965294;28;20031;-60
2021/06/14 03:44:56;;;;;;;8.20;3.72;;;12.60;99.90;;;;;;4975151;28;20031;-61
2021/06/14 03:47:22;;;;;;;11.40;3.88;;;12.60;99.90;;;;;;4978502;28;20046;-61
2021/06/14 03:49:47;;;;;;;7.00;4.22;;;12.70;99.90;;;;;;4972994;28;20027;-61
2021/06/14 03:52:13;;;;;;;8.52;4.00;;;12.70;99.90;;;;;;4973909;28;20049;-61
2021/06/14 03:54:39;;;;;;;8.15;3.47;;;12.70;99.90;;;;;;4974708;28;20048;-59
2021/06/14 03:57:05;;;;;;;6.65;3.10;;;12.80;99.90;;;;;;4976948;28;20015;-60
2021/06/14 03:59:31;;;;;;;6.28;3.78;;;12.80;99.90;;;;;;4978670;28;20030;-64
2021/06/14 04:01:56;;;;;;;8.23;3.58;;;12.90;99.90;;;;;;4979503;28;20828;-60
2021/06/14 04:04:35;;;;;;;8.95;3.75;;;12.90;99.90;;;;;;4972233;28;20041;-59
2021/06/14 04:07:01;;;;;;;11.20;3.72;;;13.00;99.90;;;;;;4978465;28;20323;-59
2021/06/14 04:09:27;;;;;;;11.18;3.97;;;13.10;99.90;;;;;;4975889;28;20480;-57
2021/06/14 04:11:53;;;;;;;8.85;3.47;;;13.10;99.90;;;;;;4973298;28;20027;-59
2021/06/14 04:14:18;;;;;;;9.77;3.00;;;13.20;99.90;;;;;;4976352;28;20113;-60
2021/06/14 04:16:44;;;;;;;7.70;3.47;;;13.30;99.90;;;;;;4977555;28;20130;-60
2021/06/14 04:19:09;;;;;;;7.32;3.13;;;13.40;99.90;;;;;;4973945;28;20554;-60
2021/06/14 04:21:35;;;;;;;10.68;3.47;;;13.50;99.90;;;;;;4982153;28;20058;-60
2021/06/14 04:24:01;;;;;;;10.25;3.50;;;13.60;99.90;;;;;;4976169;28;20126;-60
2021/06/14 04:26:27;;;;;;;5.95;3.17;;;13.70;99.90;;;;;;4972696;28;20413;-62
2021/06/14 04:28:53;;;;;;;9.25;3.90;;;13.90;99.90;;;;;;4982870;28;20035;-60
2021/06/14 04:31:18;;;;;;;7.80;3.58;;;14.20;99.90;;;;;;4977713;28;20031;-64
2021/06/14 04:33:44;;;;;;;7.80;3.08;;;15.20;99.90;;;;;;4975987;28;20045;-61
2021/06/14 04:36:09;;;;;;;8.43;3.65;;;16.80;99.90;;;;;;4977367;28;20452;-61
2021/06/14 04:38:35;;;;;;;9.60;3.38;;;18.50;98.20;;;;;;4981434;28;20093;-60
2021/06/14 04:41:01;;;;;;;9.48;2.90;;;20.50;92.30;;;;;;4980391;28;20492;-60
2021/06/14 04:43:26;;;;;;;5.50;2.95;;;22.10;86.50;;;;;;4978468;28;20042;-62
2021/06/14 04:45:52;;;;;;;6.53;2.80;;;23.00;80.90;;;;;;4982846;28;20027;-60
2021/06/14 04:48:18;;;;;;;7.00;2.90;;;24.20;75.80;;;;;;4980525;28;20037;-60
2021/06/14 04:50:43;;;;;;;11.27;3.30;;;24.50;71.80;;;;;;4979374;28;20027;-61
2021/06/14 04:53:09;;;;;;;5.15;2.53;;;25.50;65.90;;;;;;4983099;28;20042;-61
2021/06/14 04:55:34;;;;;;;7.45;3.13;;;25.60;62.80;;;;;;4978897;28;20452;-61
2021/06/14 04:58:00;;;;;;;6.78;2.92;;;25.70;61.60;;;;;;4989061;28;20484;-62
2021/06/14 05:00:27;;;;;;;8.15;3.00;;;26.30;58.10;;;;;;4994459;28;20105;-62
2021/06/14 05:02:53;;;;;;;6.47;3.20;;;26.90;59.40;;;;;;4991395;28;20038;-61
2021/06/14 05:05:18;;;;;;;6.15;2.53;;;27.20;56.90;;;;;;4988442;28;20015;-62
2021/06/14 05:07:44;;;;;;;5.65;2.80;;;27.00;55.00;;;;;;4988599;28;20022;-63
2021/06/14 05:10:11;;;;;;;7.28;3.08;;;27.50;54.90;;;;;;4989592;28;20015;-62
2021/06/14 05:12:37;;;;;;;5.53;2.30;;;27.50;54.50;;;;;;4990772;28;20092;-62
2021/06/14 05:15:04;;;;;;;7.35;3.83;;;27.60;52.00;;;;;;4991372;28;20420;-61
2021/06/14 05:17:30;;;;;;;6.07;3.35;;;28.20;50.90;;;;;;4991086;28;20034;-62
2021/06/14 05:19:55;;;;;;;5.88;3.17;;;29.10;50.60;;;;;;4991092;28;20068;-63
2021/06/14 05:22:21;;;;;;;5.70;2.78;;;29.10;49.60;;;;;;4990002;28;20034;-62
2021/06/14 05:24:46;;;;;;;6.88;2.75;;;29.60;49.00;;;;;;4991837;28;20057;-62
2021/06/14 05:27:12;;;;;;;6.95;2.90;;;29.80;49.40;;;;;;4990626;28;20019;-61
2021/06/14 05:29:37;;;;;;;4.85;2.80;;;29.70;47.70;;;;;;4990248;28;20041;-63
2021/06/14 05:32:04;;;;;;;5.45;2.47;;;28.80;48.30;;;;;;4992962;28;20028;-62
2021/06/14 05:34:29;;;;;;;9.10;2.97;;;29.10;47.30;;;;;;4991197;28;20462;-62
2021/06/14 05:36:56;;;;;;;5.05;2.72;;;28.70;47.70;;;;;;4991323;28;20030;-62
2021/06/14 05:39:21;;;;;;;8.15;2.78;;;29.10;47.90;;;;;;4991884;28;20033;-62
2021/06/14 05:41:48;;;;;;;7.07;3.00;;;29.20;47.60;;;;;;4996996;28;20041;-61
2021/06/14 05:44:14;;;;;;;4.88;2.35;;;29.20;47.50;;;;;;4990423;28;20366;-63
2021/06/14 05:46:40;;;;;;;5.25;3.08;;;29.90;47.70;;;;;;4991448;28;20026;-62
2021/06/14 05:49:06;;;;;;;4.47;2.65;;;31.20;46.50;;;;;;4989774;28;20092;-62
2021/06/14 05:51:32;;;;;;;7.95;3.13;;;31.30;45.80;;;;;;4989108;28;20514;-63
2021/06/14 05:53:57;;;;;;;7.40;2.70;;;31.30;43.60;;;;;;4990731;28;20035;-62
2021/06/14 05:56:24;;;;;;;6.72;3.53;;;30.50;44.30;;;;;;4991772;28;20117;-62
2021/06/14 05:58:51;;;;;;;11.25;3.03;;;31.60;44.30;;;;;;4989461;28;20491;-61
2021/06/14 06:01:17;;;;;;;10.20;3.03;;;31.50;43.10;;;;;;4990496;28;20030;-62
2021/06/14 06:03:42;;;;;;;8.60;3.00;;;30.40;45.30;;;;;;4987980;28;20034;-62
2021/06/14 06:06:08;;;;;;;5.10;3.05;;;31.20;44.90;;;;;;4990674;28;20643;-61
2021/06/14 06:08:33;;;;;;;10.60;3.17;;;31.20;43.80;;;;;;4982139;28;20023;-63
2021/06/14 06:10:59;;;;;;;6.93;2.85;;;31.90;43.80;;;;;;4991901;28;20488;-63
2021/06/14 06:13:24;;;;;;;5.82;2.55;;;31.70;43.50;;;;;;4990339;28;20100;-63
2021/06/14 06:15:50;;;;;;;5.55;2.80;;;31.70;43.80;;;;;;4991648;28;20116;-63
2021/06/14 06:18:16;;;;;;;8.07;2.88;;;32.10;42.40;;;;;;4988724;28;20060;-62
2021/06/14 06:20:41;;;;;;;8.18;2.58;;;32.50;43.00;;;;;;4989291;28;20062;-63
2021/06/14 06:23:07;;;;;;;4.97;2.80;;;32.80;42.40;;;;;;4984611;28;20038;-61
2021/06/14 06:25:32;;;;;;;7.18;3.03;;;33.00;41.90;;;;;;4991645;28;20068;-62
2021/06/14 06:27:58;;;;;;;3.55;2.70;;;32.90;41.80;;;;;;4987377;28;20109;-63
2021/06/14 06:30:29;;;;;;;3.95;2.40;;;33.10;41.20;;;;;;4991700;28;20068;-63
2021/06/14 06:32:55;;;;;;;5.90;2.65;;;33.30;40.90;;;;;;4989076;28;20484;-62
2021/06/14 06:35:21;;;;;;;6.10;2.78;;;33.10;41.00;;;;;;4990665;28;20041;-63
2021/06/14 06:37:47;;;;;;;5.53;2.60;;;32.40;41.00;;;;;;4987456;28;20500;-63
2021/06/14 06:40:16;;;;;;;4.07;2.55;;;33.30;40.50;;;;;;4990160;28;20034;-63
2021/06/14 06:42:42;;;;;;;8.20;2.75;;;32.60;40.60;;;;;;4987279;28;20583;-63
2021/06/14 06:45:09;;;;;;;5.50;2.60;;;33.40;40.50;;;;;;4991959;28;20480;-62
2021/06/14 06:47:36;;;;;;;4.82;2.65;;;33.50;42.10;;;;;;4990460;28;20070;-62
2021/06/14 06:50:03;;;;;;;7.38;2.45;;;33.30;41.20;;;;;;4988351;28;20080;-63
2021/06/14 06:52:29;;;;;;;9.10;2.85;;;33.50;41.30;;;;;;4989692;28;20031;-63
2021/06/14 06:54:55;;;;;;;5.93;2.67;;;33.60;40.60;;;;;;4989676;28;20029;-63
2021/06/14 06:57:20;;;;;;;5.45;2.70;;;34.10;41.30;;;;;;4988792;28;20022;-63
2021/06/14 06:59:46;;;;;;;7.03;2.40;;;35.00;41.20;;;;;;4984316;28;20129;-62
2021/06/14 07:02:12;;;;;;;7.32;2.90;;;35.00;40.90;;;;;;4968359;28;20057;-63
2021/06/14 07:04:38;;;;;;;6.88;2.72;;;34.30;39.80;;;;;;4986511;28;20077;-63
2021/06/14 07:07:05;;;;;;;3.83;2.65;;;35.20;40.20;;;;;;4989330;28;20010;-63
2021/06/14 07:09:31;;;;;;;5.55;3.03;;;36.00;39.10;;;;;;4984157;28;20023;-63
2021/06/14 07:11:57;;;;;;;5.18;2.83;;;36.50;39.40;;;;;;4987795;28;20034;-63
2021/06/14 07:14:23;;;;;;;3.92;2.40;;;36.10;37.90;;;;;;4988780;28;20060;-63
2021/06/14 07:16:49;;;;;;;6.43;2.83;;;36.90;37.50;;;;;;4986099;28;20047;-62
2021/06/14 07:19:14;;;;;;;6.05;2.20;;;35.70;38.20;;;;;;4988244;28;20092;-62
2021/06/14 07:21:40;;;;;;;5.97;3.05;;;35.20;38.70;;;;;;4987962;28;20038;-63
2021/06/14 07:24:07;;;;;;;6.93;2.50;;;34.90;39.40;;;;;;4983201;28;20041;-63
2021/06/14 07:26:33;;;;;;;8.70;2.85;;;35.50;40.40;;;;;;4981155;28;20026;-63
2021/06/14 07:28:59;;;;;;;3.90;2.72;;;35.80;38.30;;;;;;4986500;28;20022;-63
2021/06/14 07:31:25;;;;;;;8.23;2.25;;;35.40;38.10;;;;;;4993067;28;20447;-62
2021/06/14 07:33:51;;;;;;;6.57;2.97;;;35.20;39.60;;;;;;4988341;28;20034;-63
2021/06/14 07:36:17;;;;;;;6.25;3.00;;;34.60;37.80;;;;;;4983033;28;20100;-62
2021/06/14 07:38:43;;;;;;;5.82;2.30;;;34.90;37.70;;;;;;4989312;28;20022;-62
2021/06/14 07:41:09;;;;;;;6.38;2.95;;;34.20;38.70;;;;;;4985889;28;20030;-62
2021/06/14 07:43:35;;;;;;;4.82;2.50;;;33.80;39.50;;;;;;4986301;28;20383;-63
2021/06/14 07:46:01;;;;;;;4.95;2.50;;;33.80;39.30;;;;;;4988596;28;20200;-61
2021/06/14 07:48:26;;;;;;;7.07;2.75;;;34.50;40.10;;;;;;4987431;28;20046;-61
2021/06/14 07:50:55;;;;;;;5.63;2.92;;;35.50;37.00;;;;;;4987609;28;20101;-64
2021/06/14 07:53:21;;;;;;;4.68;2.63;;;34.40;37.70;;;;;;4988617;28;20114;-62
2021/06/14 07:55:47;;;;;;;5.43;2.50;;;35.10;39.00;;;;;;4983623;28;20113;-63
2021/06/14 07:58:14;;;;;;;6.38;2.55;;;35.20;38.30;;;;;;4989018;28;20037;-61
2021/06/14 08:00:40;;;;;;;5.28;2.85;;;35.30;39.00;;;;;;4971480;28;20035;-63
2021/06/14 08:03:07;;;;;;;5.68;2.25;;;35.10;37.80;;;;;;4988452;28;20037;-63
2021/06/14 08:05:33;;;;;;;3.30;2.35;;;34.90;40.30;;;;;;4987223;28;20084;-60
2021/06/14 08:07:59;;;;;;;4.72;2.35;;;35.60;39.30;;;;;;4987369;28;20041;-62
2021/06/14 08:10:24;;;;;;;5.97;2.55;;;35.30;37.90;;;;;;4989402;28;20018;-63
2021/06/14 08:12:51;;;;;;;6.63;2.50;;;35.50;38.00;;;;;;4992377;28;20053;-63
2021/06/14 08:15:29;;;;;;;7.53;2.60;;;35.60;38.40;;;;;;4985974;28;20510;-62
2021/06/14 08:18:14;;;;;;;6.28;2.75;;;35.10;39.50;;;;;;4985239;28;20034;-62
2021/06/14 08:20:46;;;;;;;5.40;2.65;;;35.00;39.90;;;;;;4989915;28;20030;-63
2021/06/14 08:25:50;;;;;;;8.48;2.75;;;36.60;37.80;;;;;;4992405;28;20096;-63
2021/06/14 08:28:16;;;;;;;4.43;2.42;;;36.10;38.10;;;;;;4990382;28;20484;-63
2021/06/14 08:30:42;;;;;;;9.00;2.70;;;35.60;38.10;;;;;;4996722;28;20396;-63
2021/06/14 08:33:08;;;;;;;4.00;2.20;;;35.70;38.00;;;;;;4996428;28;20077;-62
2021/06/14 08:35:34;;;;;;;3.97;2.72;;;36.10;39.10;;;;;;5001333;28;20034;-62
2021/06/14 08:38:00;;;;;;;6.82;2.85;;;36.00;36.90;;;;;;4989715;28;20049;-62
2021/06/14 08:40:28;;;;;;;5.22;2.50;;;35.40;38.20;;;;;;4993167;28;20427;-62
2021/06/14 08:42:55;;;;;;;7.57;2.85;;;35.50;38.30;;;;;;4987797;28;20023;-62
2021/06/14 08:45:20;;;;;;;4.68;2.80;;;35.20;39.20;;;;;;4993206;28;20483;-62
2021/06/14 08:47:48;;;;;;;9.65;3.25;;;35.60;38.70;;;;;;4988705;28;20026;-63
2021/06/14 08:50:16;;;;;;;5.03;2.35;;;35.70;39.10;;;;;;4992282;28;20022;-63
2021/06/14 08:52:42;;;;;;;5.10;2.50;;;35.10;39.80;;;;;;4984976;28;20077;-61
2021/06/14 08:55:11;;;;;;;5.40;2.92;;;35.90;39.70;;;;;;4991007;28;20029;-62
2021/06/14 08:57:37;;;;;;;5.97;2.95;;;36.30;37.60;;;;;;4990634;28;20033;-62
2021/06/14 09:00:06;;;;;;;9.30;2.88;;;36.10;38.80;;;;;;4987759;28;20034;-61
2021/06/14 09:02:31;;;;;;;4.45;2.60;;;36.10;38.20;;;;;;4972547;28;20116;-63
2021/06/14 09:04:57;;;;;;;7.65;2.72;;;36.40;38.20;;;;;;4982333;28;20492;-63
2021/06/14 09:07:23;;;;;;;6.65;2.58;;;36.50;36.70;;;;;;4986853;28;20538;-61
2021/06/14 09:09:49;;;;;;;6.20;2.70;;;36.10;37.60;;;;;;4986301;28;20073;-63
2021/06/14 09:12:15;;;;;;;5.88;3.33;;;36.20;36.80;;;;;;4986691;28;20114;-63
2021/06/14 09:14:42;;;;;;;7.85;3.20;;;35.80;37.30;;;;;;4988634;28;20101;-62
2021/06/14 09:17:14;;;;;;;7.47;2.60;;;35.30;37.90;;;;;;4990797;28;20030;-63
2021/06/14 09:19:42;;;;;;;6.22;2.70;;;34.40;39.10;;;;;;4985206;28;20025;-63
2021/06/14 09:22:16;;;;;;;8.05;3.00;;;33.50;40.00;;;;;;4980291;28;20114;-62
2021/06/14 09:24:53;;;;;;;5.63;2.60;;;32.90;39.70;;;;;;4991171;28;20080;-62
2021/06/14 09:27:41;;;;;;;4.38;2.60;;;32.70;40.80;;;;;;4992348;28;20480;-63
2021/06/14 09:30:24;;;;;;;5.35;2.75;;;33.90;39.10;;;;;;4987589;28;20027;-63
2021/06/14 09:33:02;;;;;;;6.45;3.20;;;34.20;39.80;;;;;;4987667;28;20423;-63
2021/06/14 09:35:31;;;;;;;9.45;2.53;;;34.10;40.80;;;;;;4986734;28;20038;-61
2021/06/14 09:38:03;;;;;;;5.25;2.70;;;34.30;39.80;;;;;;4984404;28;20034;-62
2021/06/14 09:40:50;;;;;;;6.20;2.95;;;35.10;38.70;;;;;;4990313;28;20027;-62
2021/06/14 09:43:37;;;;;;;7.30;3.17;;;35.20;38.60;;;;;;4980661;28;20554;-63
2021/06/14 09:46:05;;;;;;;4.85;2.60;;;34.60;39.20;;;;;;4989123;28;20046;-61
2021/06/14 09:48:35;;;;;;;7.85;2.97;;;34.80;39.00;;;;;;4985193;28;20023;-62
2021/06/14 09:51:01;;;;;;;10.80;2.50;;;34.70;40.10;;;;;;4976833;28;20747;-61
2021/06/14 09:53:35;;;;;;;4.75;2.47;;;34.00;39.80;;;;;;4988000;28;20027;-62
2021/06/14 09:56:14;;;;;;;6.90;2.72;;;34.30;39.90;;;;;;4988911;28;20452;-62
2021/06/14 09:58:41;;;;;;;3.45;2.13;;;34.60;39.10;;;;;;4990146;28;20030;-61
2021/06/14 10:01:07;;;;;;;4.22;2.70;;;34.50;39.20;;;;;;4971106;28;20558;-62
2021/06/14 10:03:42;;;;;;;4.40;2.78;;;34.20;39.70;;;;;;4989643;28;20023;-61
2021/06/14 10:06:08;;;;;;;6.68;2.92;;;34.90;41.90;;;;;;4981674;28;20022;-61
2021/06/14 10:08:34;;;;;;;6.95;3.25;;;33.70;40.90;;;;;;4980840;28;20027;-61
2021/06/14 10:11:10;;;;;;;5.43;2.67;;;33.30;42.10;;;;;;4985398;28;20108;-61
2021/06/14 10:13:41;;;;;;;5.25;2.92;;;33.40;41.60;;;;;;4987119;28;20031;-61
2021/06/14 10:16:09;;;;;;;7.50;2.80;;;33.10;41.80;;;;;;4987195;28;20077;-60
2021/06/14 10:18:58;;;;;;;5.18;2.70;;;32.70;42.80;;;;;;4988038;28;20038;-61
2021/06/14 10:21:34;;;;;;;7.00;2.42;;;32.30;42.80;;;;;;4994523;28;20690;-60
2021/06/14 10:24:05;;;;;;;6.57;3.00;;;31.80;43.10;;;;;;4987979;28;20440;-61
2021/06/14 10:26:32;;;;;;;6.85;2.80;;;31.70;44.10;;;;;;4978966;28;20042;-60
2021/06/14 10:28:58;;;;;;;7.13;2.90;;;31.20;44.70;;;;;;4980580;28;20045;-61
2021/06/14 10:31:24;;;;;;;5.78;2.78;;;30.40;44.10;;;;;;4990029;28;20476;-61
2021/06/14 10:33:52;;;;;;;4.90;2.70;;;30.60;44.20;;;;;;4986279;28;20034;-61
2021/06/14 10:36:23;;;;;;;7.88;3.30;;;30.40;45.30;;;;;;4984443;28;20536;-62
2021/06/14 10:38:49;;;;;;;5.85;3.38;;;30.20;45.40;;;;;;4988273;28;20117;-60
2021/06/14 10:41:16;;;;;;;6.13;2.65;;;30.20;46.70;;;;;;4990610;28;20076;-61
2021/06/14 10:43:42;;;;;;;5.45;2.85;;;29.70;47.70;;;;;;4989785;28;20484;-61
2021/06/14 10:46:12;;;;;;;6.82;3.10;;;29.90;46.50;;;;;;4983874;28;20030;-60
2021/06/14 10:48:39;;;;;;;14.02;2.40;;;29.70;46.70;;;;;;4985616;28;20027;-61
2021/06/14 10:51:16;;;;;;;5.28;2.40;;;29.10;49.40;;;;;;4990169;28;20030;-61
2021/06/14 10:53:42;;;;;;;4.00;2.20;;;29.50;45.80;;;;;;4988087;28;20050;-61
2021/06/14 10:56:12;;;;;;;4.60;2.28;;;29.40;45.60;;;;;;4988066;28;20343;-60
2021/06/14 10:58:42;;;;;;;6.45;2.58;;;29.60;45.60;;;;;;4988241;28;20028;-61
2021/06/14 11:01:12;;;;;;;5.53;2.17;;;29.60;46.80;;;;;;4969910;28;20054;-61
2021/06/14 11:03:43;;;;;;;5.43;2.58;;;29.60;46.80;;;;;;5002418;28;20033;-61
2021/06/14 11:06:18;;;;;;;5.55;2.42;;;29.10;45.50;;;;;;4999824;28;20018;-61
2021/06/14 11:08:54;;;;;;;5.32;2.75;;;29.20;46.40;;;;;;4992762;28;20030;-61
2021/06/14 11:11:20;;;;;;;7.70;2.53;;;29.10;48.70;;;;;;4989837;28;20031;-60
2021/06/14 11:13:51;;;;;;;5.97;2.50;;;28.80;47.60;;;;;;4997881;28;20080;-61
2021/06/14 11:16:17;;;;;;;4.85;2.05;;;28.80;48.40;;;;;;4996450;28;20141;-61
2021/06/14 11:18:43;;;;;;;5.40;2.90;;;29.10;47.50;;;;;;4987952;28;20041;-61
2021/06/14 11:21:18;;;;;;;5.25;2.50;;;29.00;47.10;;;;;;4989527;28;20030;-60
2021/06/14 11:23:47;;;;;;;5.05;2.60;;;29.20;45.30;;;;;;4986656;28;20026;-61
2021/06/14 11:26:24;;;;;;;7.95;2.47;;;29.20;45.00;;;;;;4990214;28;20038;-60
2021/06/14 11:28:50;;;;;;;3.33;1.95;;;29.00;47.50;;;;;;4979598;28;20106;-59
2021/06/14 11:31:19;;;;;;;6.65;2.30;;;28.60;47.90;;;;;;4973244;28;20555;-60
2021/06/14 11:33:46;;;;;;;5.40;2.35;;;28.70;47.20;;;;;;4987301;28;20042;-62
2021/06/14 11:36:24;;;;;;;4.15;2.22;;;28.60;48.60;;;;;;4980586;28;20571;-62
2021/06/14 11:38:51;;;;;;;5.07;2.55;;;28.90;47.20;;;;;;4985646;28;20041;-60
2021/06/14 11:41:34;;;;;;;6.82;2.90;;;29.10;48.10;;;;;;4988088;28;20022;-61
2021/06/14 11:44:29;;;;;;;6.33;2.50;;;29.20;46.40;;;;;;4987313;28;20034;-62
2021/06/14 11:46:57;;;;;;;7.20;2.30;;;29.00;47.70;;;;;;4990866;28;20273;-61
2021/06/14 11:49:35;;;;;;;4.05;2.33;;;28.90;45.80;;;;;;4990473;28;20034;-60
2021/06/14 11:52:04;;;;;;;4.57;2.50;;;28.90;46.60;;;;;;4986103;28;20023;-61
2021/06/14 11:54:30;;;;;;;7.03;2.20;;;28.90;48.50;;;;;;4988397;28;20045;-62
2021/06/14 11:57:02;;;;;;;5.88;2.67;;;28.90;46.70;;;;;;4980709;28;20031;-61
2021/06/14 11:59:35;;;;;;;4.60;2.20;;;28.70;46.10;;;;;;4988833;28;20031;-63
2021/06/14 12:02:04;;;;;;;4.45;2.38;;;28.60;47.10;;;;;;4972188;28;20049;-62
2021/06/14 12:04:29;;;;;;;5.47;2.22;;;28.30;48.40;;;;;;4987927;28;20030;-63
2021/06/14 12:06:57;;;;;;;4.13;2.50;;;28.20;48.50;;;;;;4987029;28;20259;-61
2021/06/14 12:09:27;;;;;;;5.30;2.40;;;28.10;50.80;;;;;;4986514;28;20110;-62
2021/06/14 12:11:58;;;;;;;4.53;2.00;;;28.10;47.30;;;;;;4995608;28;20030;-60
2021/06/14 12:14:24;;;;;;;4.72;2.35;;;28.10;49.00;;;;;;4991304;28;20112;-61
2021/06/14 12:16:57;;;;;;;9.63;2.67;;;28.10;47.90;;;;;;4972534;28;20053;-61
2021/06/14 12:19:24;;;;;;;4.35;2.55;;;27.90;47.10;;;;;;4988501;28;20405;-61
2021/06/14 12:21:55;;;;;;;7.57;2.58;;;28.10;49.20;;;;;;4988085;28;20031;-62
2021/06/14 12:24:21;;;;;;;7.22;2.38;;;28.10;49.30;;;;;;4989347;28;20109;-61
2021/06/14 12:26:47;;;;;;;9.45;2.60;;;28.10;47.70;;;;;;4989661;28;20590;-61
2021/06/14 12:29:20;;;;;;;7.60;2.65;;;28.20;49.00;;;;;;4989301;28;20037;-61
2021/06/14 12:31:46;;;;;;;4.68;2.05;;;28.20;48.10;;;;;;4992811;28;20391;-61
2021/06/14 12:34:11;;;;;;;3.70;2.00;;;28.10;48.60;;;;;;4989604;28;20026;-60
2021/06/14 12:36:37;;;;;;;6.10;2.20;;;28.00;49.60;;;;;;4990912;28;20041;-61
2021/06/14 12:39:03;;;;;;;8.30;2.20;;;27.90;50.90;;;;;;4990391;28;20030;-61
2021/06/14 12:41:29;;;;;;;8.68;2.50;;;27.90;49.50;;;;;;4988937;28;20105;-61
2021/06/14 12:43:54;;;;;;;3.97;2.10;;;28.00;49.20;;;;;;4989092;28;20113;-60
2021/06/14 12:46:34;;;;;;;6.78;2.30;;;28.00;47.70;;;;;;4980238;28;20077;-61
2021/06/14 12:49:00;;;;;;;4.63;2.15;;;28.00;47.70;;;;;;4983438;28;20022;-60
2021/06/14 12:51:38;;;;;;;8.85;2.47;;;27.80;49.20;;;;;;4985785;28;20080;-61
2021/06/14 12:54:04;;;;;;;19.20;2.67;;;27.80;48.10;;;;;;4991192;28;20044;-61